Time;durP1;ratioP1;P1;durP2;ratioP2;P2;SDS_P1;SDS_P2;PMS_P1;PMS_P2;Temp;Humidity;BMP_temperature;BMP_pressure;BME280_temperature;BME280_humidity;BME280_pressure;Samples;Min_cycle;Max_cycle;Signal;HPM_P1;HPM_P2
2022/07/29 00:01:45;;;;;;;2.90;0.80;;;23.00;43.40;;;;;;5032844;28;20095;-45
2022/07/29 00:04:14;;;;;;;1.33;0.93;;;23.00;43.00;;;;;;5029052;28;20417;-47
2022/07/29 00:06:45;;;;;;;1.27;1.13;;;23.00;43.00;;;;;;5029060;28;20045;-47
2022/07/29 00:09:14;;;;;;;1.95;0.80;;;23.00;43.40;;;;;;5032950;28;20034;-46
2022/07/29 00:11:46;;;;;;;3.80;1.05;;;23.00;42.90;;;;;;5032774;28;20041;-47
2022/07/29 00:14:13;;;;;;;1.48;1.25;;;23.00;43.20;;;;;;5026878;28;20049;-46
2022/07/29 00:16:42;;;;;;;1.80;1.00;;;22.90;43.50;;;;;;5032233;28;20041;-46
2022/07/29 00:19:12;;;;;;;1.20;1.00;;;22.90;43.70;;;;;;5032856;28;20045;-46
2022/07/29 00:21:39;;;;;;;2.95;1.17;;;22.90;44.10;;;;;;5032488;28;20037;-46
2022/07/29 00:24:08;;;;;;;2.05;0.90;;;22.90;43.90;;;;;;5024597;28;20042;-46
2022/07/29 00:26:35;;;;;;;2.88;1.02;;;22.90;43.90;;;;;;5031312;28;20045;-45
2022/07/29 00:29:03;;;;;;;1.50;1.10;;;22.80;43.90;;;;;;5014762;28;20092;-47
2022/07/29 00:31:53;;;;;;;1.80;0.90;;;22.80;44.10;;;;;;5028701;28;20069;-47
2022/07/29 00:37:07;;;;;;;3.78;1.17;;;22.80;43.90;;;;;;5032158;28;20045;-45
2022/07/29 00:39:36;;;;;;;2.50;1.20;;;22.70;43.90;;;;;;5029480;28;20164;-45
2022/07/29 00:42:04;;;;;;;1.20;1.10;;;22.70;43.90;;;;;;5026300;28;20047;-50
2022/07/29 00:44:36;;;;;;;5.30;1.23;;;22.70;43.80;;;;;;5032059;28;20037;-47
2022/07/29 00:47:03;;;;;;;;;;;22.70;43.80;;;;;;5032275;28;20046;-45
2022/07/29 00:49:34;;;;;;;1.55;0.88;;;22.70;43.40;;;;;;5031888;28;19932;-46
2022/07/29 00:52:11;;;;;;;3.20;1.17;;;22.70;44.20;;;;;;5025397;28;20064;-46
2022/07/29 00:54:40;;;;;;;2.25;1.17;;;22.70;43.60;;;;;;5027991;28;20050;-48
2022/07/29 00:57:11;;;;;;;2.47;1.08;;;22.70;43.50;;;;;;5031965;28;20042;-49
2022/07/29 00:59:40;;;;;;;3.58;2.00;;;22.60;44.00;;;;;;5026483;28;20452;-45
2022/07/29 01:02:07;;;;;;;5.57;1.38;;;22.70;43.20;;;;;;5025668;28;20585;-49
2022/07/29 01:04:35;;;;;;;3.00;1.65;;;22.60;43.10;;;;;;5031736;28;20045;-46
2022/07/29 01:07:11;;;;;;;2.75;1.25;;;22.60;43.30;;;;;;5031602;28;20061;-44
2022/07/29 01:09:43;;;;;;;4.55;1.00;;;22.60;43.30;;;;;;5008765;28;20072;-45
2022/07/29 01:12:24;;;;;;;2.17;1.10;;;22.60;43.40;;;;;;5030590;28;20045;-46
2022/07/29 01:14:53;;;;;;;2.20;0.90;;;22.60;43.50;;;;;;5031613;28;20572;-45
2022/07/29 01:17:26;;;;;;;3.83;1.33;;;22.60;43.20;;;;;;5014546;28;20128;-48
2022/07/29 01:20:09;;;;;;;1.55;0.98;;;22.60;43.10;;;;;;5022159;28;20066;-44
2022/07/29 01:23:06;;;;;;;2.17;1.10;;;22.60;42.90;;;;;;5025720;28;20045;-46
2022/07/29 01:25:37;;;;;;;3.00;1.15;;;22.60;43.00;;;;;;5011300;28;20117;-45
2022/07/29 01:28:41;;;;;;;1.85;0.80;;;22.50;43.00;;;;;;5018748;28;20088;-46
2022/07/29 01:31:12;;;;;;;4.28;1.13;;;22.40;43.10;;;;;;5030623;28;20077;-47
2022/07/29 01:33:53;;;;;;;;;;;22.40;43.30;;;;;;5031634;28;20502;-48
2022/07/29 01:37:01;;;;;;;2.88;1.38;;;22.40;42.70;;;;;;5026532;28;19956;-48
2022/07/29 01:39:39;;;;;;;1.35;0.70;;;22.30;43.20;;;;;;5024023;28;20072;-46
2022/07/29 01:42:16;;;;;;;4.20;1.48;;;22.30;43.50;;;;;;5029257;28;20375;-48
2022/07/29 01:45:08;;;;;;;1.08;0.82;;;22.20;43.60;;;;;;5031092;28;20038;-44
2022/07/29 01:47:52;;;;;;;4.05;1.00;;;22.20;43.90;;;;;;5027141;28;20448;-46
2022/07/29 01:50:23;;;;;;;2.25;0.90;;;22.10;44.10;;;;;;5028541;28;20034;-47
2022/07/29 01:52:55;;;;;;;1.75;1.00;;;22.10;44.10;;;;;;5030871;28;20107;-46
2022/07/29 01:55:28;;;;;;;2.72;1.05;;;22.00;44.50;;;;;;5029165;28;20045;-44
2022/07/29 01:57:58;;;;;;;1.92;0.85;;;22.00;44.60;;;;;;5024081;28;20057;-44
2022/07/29 02:00:28;;;;;;;2.50;1.20;;;21.90;44.50;;;;;;5030614;28;20096;-45
2022/07/29 02:02:56;;;;;;;3.72;1.23;;;21.90;44.60;;;;;;5030318;28;20505;-48
2022/07/29 02:05:26;;;;;;;1.98;0.93;;;21.80;44.70;;;;;;5030234;28;20434;-45
2022/07/29 02:07:55;;;;;;;2.15;0.98;;;21.80;44.90;;;;;;5024348;28;20556;-45
2022/07/29 02:10:26;;;;;;;4.15;1.17;;;21.80;45.30;;;;;;5022710;28;20467;-46
2022/07/29 02:13:00;;;;;;;2.05;0.95;;;21.80;45.80;;;;;;5030803;28;20047;-48
2022/07/29 02:15:32;;;;;;;3.50;1.10;;;21.70;46.30;;;;;;5021820;28;20044;-46
2022/07/29 02:18:07;;;;;;;1.85;1.20;;;21.70;46.70;;;;;;5028489;28;20502;-45
2022/07/29 02:20:34;;;;;;;2.83;1.42;;;21.70;46.90;;;;;;5030208;28;20041;-46
2022/07/29 02:23:03;;;;;;;3.42;1.10;;;21.60;46.80;;;;;;5029302;28;20087;-45
2022/07/29 02:25:31;;;;;;;1.98;1.20;;;21.60;47.10;;;;;;5012247;28;20053;-45
2022/07/29 02:28:09;;;;;;;4.25;0.95;;;21.60;47.60;;;;;;5030595;28;20448;-45
2022/07/29 02:30:44;;;;;;;;;;;21.60;47.60;;;;;;5031050;28;20125;-46
2022/07/29 02:33:15;;;;;;;4.20;1.65;;;21.60;46.30;;;;;;5025966;28;20336;-46
2022/07/29 02:35:47;;;;;;;3.63;1.33;;;21.60;48.10;;;;;;5024062;28;20029;-45
2022/07/29 02:41:11;;;;;;;8.60;2.95;;;21.50;52.30;;;;;;5029390;28;20037;-46
2022/07/29 02:43:42;;;;;;;6.45;1.55;;;21.50;54.10;;;;;;5024505;28;20029;-47
2022/07/29 02:46:14;;;;;;;7.05;2.38;;;21.50;53.70;;;;;;5029984;28;20037;-45
2022/07/29 02:49:16;;;;;;;5.70;1.98;;;21.40;53.70;;;;;;5030882;28;20041;-46
2022/07/29 02:51:52;;;;;;;3.10;1.55;;;21.40;55.50;;;;;;5030524;28;20128;-45
2022/07/29 02:54:41;;;;;;;3.70;1.50;;;21.30;53.90;;;;;;5024494;28;20065;-44
2022/07/29 02:57:40;;;;;;;3.00;1.60;;;21.20;55.00;;;;;;5032406;28;20068;-47
2022/07/29 03:00:26;;;;;;;2.67;1.15;;;21.00;55.50;;;;;;5034406;28;20505;-46
2022/07/29 03:02:59;;;;;;;2.15;1.45;;;20.90;54.40;;;;;;5054892;22;20065;-47
2022/07/29 03:05:27;;;;;;;2.80;1.42;;;20.80;55.00;;;;;;5030189;28;20436;-47
2022/07/29 03:08:05;;;;;;;4.45;1.90;;;20.70;55.10;;;;;;5030449;28;20494;-51
2022/07/29 03:10:37;;;;;;;2.20;1.30;;;20.60;56.50;;;;;;5027667;28;20086;-51
2022/07/29 03:13:05;;;;;;;3.20;1.42;;;20.50;55.50;;;;;;5030453;28;20041;-50
2022/07/29 03:15:35;;;;;;;2.10;1.38;;;20.50;55.90;;;;;;5033379;28;20464;-49
2022/07/29 03:18:05;;;;;;;3.80;1.40;;;20.40;56.20;;;;;;5034090;28;20041;-47
2022/07/29 03:20:33;;;;;;;3.30;1.38;;;20.40;56.90;;;;;;5030265;28;20553;-51
2022/07/29 03:23:00;;;;;;;4.35;1.52;;;20.40;56.60;;;;;;5030684;28;20079;-50
2022/07/29 03:25:29;;;;;;;3.28;1.45;;;20.40;56.40;;;;;;5033510;28;20087;-48
2022/07/29 03:28:00;;;;;;;3.33;1.50;;;20.30;56.90;;;;;;5015996;28;20498;-53
2022/07/29 03:30:30;;;;;;;2.80;1.52;;;20.30;57.10;;;;;;5028018;28;20113;-49
2022/07/29 03:33:01;;;;;;;2.90;1.40;;;20.30;56.60;;;;;;5030150;28;20041;-48
2022/07/29 03:35:33;;;;;;;4.15;1.90;;;20.20;56.60;;;;;;5033164;28;20482;-49
2022/07/29 03:38:01;;;;;;;3.92;1.70;;;20.20;56.60;;;;;;5034468;28;20046;-47
2022/07/29 03:40:43;;;;;;;2.90;1.40;;;20.20;56.60;;;;;;5031245;28;20108;-52
2022/07/29 03:43:12;;;;;;;2.45;1.50;;;20.10;57.10;;;;;;5032462;28;20041;-48
2022/07/29 03:45:44;;;;;;;2.67;2.25;;;20.10;56.90;;;;;;5033140;28;20057;-47
2022/07/29 03:48:16;;;;;;;1.73;1.42;;;20.10;57.30;;;;;;5029135;28;20634;-50
2022/07/29 03:50:43;;;;;;;2.38;1.52;;;20.00;57.50;;;;;;5027879;28;20080;-49
2022/07/29 03:53:12;;;;;;;5.15;1.55;;;20.00;57.60;;;;;;5016362;28;20074;-46
2022/07/29 03:55:45;;;;;;;2.78;1.83;;;20.00;58.20;;;;;;5015877;28;20087;-49
2022/07/29 03:58:16;;;;;;;2.47;1.67;;;20.00;60.00;;;;;;5030611;28;20475;-52
2022/07/29 04:00:43;;;;;;;1.98;1.85;;;20.00;58.20;;;;;;5032950;28;20104;-45
2022/07/29 04:03:10;;;;;;;2.20;1.70;;;20.10;58.10;;;;;;5033417;28;20057;-49
2022/07/29 04:05:37;;;;;;;2.50;1.60;;;20.10;57.60;;;;;;5033401;28;20041;-46
2022/07/29 04:08:07;;;;;;;3.85;1.85;;;20.10;57.60;;;;;;5008184;28;20052;-49
2022/07/29 04:10:47;;;;;;;5.28;1.88;;;20.10;58.50;;;;;;5030388;28;20037;-47
2022/07/29 04:13:14;;;;;;;4.65;2.15;;;20.10;59.00;;;;;;5015783;28;20041;-52
2022/07/29 04:15:43;;;;;;;2.25;1.83;;;20.10;58.70;;;;;;5032977;28;20073;-46
2022/07/29 04:18:10;;;;;;;4.10;1.88;;;20.10;58.80;;;;;;5028502;28;20052;-49
2022/07/29 04:20:40;;;;;;;4.03;1.92;;;20.10;59.10;;;;;;5032851;28;20041;-50
2022/07/29 04:23:08;;;;;;;4.43;2.23;;;20.10;59.90;;;;;;5033155;28;20041;-50
2022/07/29 04:25:47;;;;;;;4.05;2.38;;;20.10;59.60;;;;;;5033125;28;20268;-45
2022/07/29 04:28:15;;;;;;;2.15;1.92;;;20.10;60.60;;;;;;5029675;28;20542;-47
2022/07/29 04:30:42;;;;;;;5.30;2.10;;;20.10;60.20;;;;;;5033093;28;20501;-48
2022/07/29 04:33:12;;;;;;;4.15;1.83;;;20.10;60.70;;;;;;5027271;28;20042;-52
2022/07/29 04:35:39;;;;;;;3.97;1.75;;;20.20;60.90;;;;;;5032864;28;20083;-46
2022/07/29 04:38:16;;;;;;;2.70;1.80;;;20.10;60.70;;;;;;5027096;28;20120;-48
2022/07/29 04:40:45;;;;;;;4.70;2.88;;;20.20;60.20;;;;;;5032037;28;20034;-47
2022/07/29 04:43:12;;;;;;;3.45;1.80;;;20.20;61.00;;;;;;5029147;28;20042;-49
2022/07/29 04:45:41;;;;;;;5.35;2.10;;;20.20;60.50;;;;;;5028405;28;20529;-47
2022/07/29 04:48:08;;;;;;;3.33;1.65;;;20.20;60.20;;;;;;5027444;28;20494;-51
2022/07/29 04:50:38;;;;;;;4.90;2.45;;;20.20;59.80;;;;;;5029063;28;20103;-52
2022/07/29 04:53:05;;;;;;;2.97;1.70;;;20.20;60.10;;;;;;5030337;28;20033;-49
2022/07/29 04:55:33;;;;;;;3.60;1.90;;;20.20;59.60;;;;;;5026858;28;20045;-49
2022/07/29 04:58:00;;;;;;;9.02;2.13;;;20.20;59.60;;;;;;5023214;28;20042;-50
2022/07/29 05:00:27;;;;;;;5.43;2.33;;;20.10;59.40;;;;;;5032272;28;20128;-52
2022/07/29 05:02:59;;;;;;;3.55;1.92;;;20.10;59.40;;;;;;5014964;28;20044;-48
2022/07/29 05:05:26;;;;;;;2.60;2.00;;;20.10;59.60;;;;;;5025592;28;20034;-48
2022/07/29 05:07:53;;;;;;;2.00;1.65;;;20.10;59.60;;;;;;5031339;28;20045;-50
2022/07/29 05:10:19;;;;;;;4.68;2.35;;;20.00;59.60;;;;;;5031147;28;20482;-49
2022/07/29 05:12:46;;;;;;;6.00;1.95;;;20.10;60.00;;;;;;5026828;28;20091;-50
2022/07/29 05:15:13;;;;;;;3.38;1.80;;;20.00;59.90;;;;;;5030863;28;20052;-50
2022/07/29 05:17:40;;;;;;;3.15;1.80;;;20.10;59.70;;;;;;5031478;28;20065;-49
2022/07/29 05:20:07;;;;;;;2.88;1.60;;;20.00;59.60;;;;;;5029273;28;20061;-50
2022/07/29 05:22:34;;;;;;;4.10;2.15;;;20.10;59.60;;;;;;5029280;28;20092;-50
2022/07/29 05:25:02;;;;;;;4.10;2.35;;;20.00;60.10;;;;;;5025767;28;20061;-51
2022/07/29 05:27:35;;;;;;;3.50;1.88;;;20.00;59.80;;;;;;5025693;28;20112;-51
2022/07/29 05:30:02;;;;;;;5.75;2.13;;;20.10;60.20;;;;;;5031622;28;20087;-50
2022/07/29 05:32:29;;;;;;;3.28;2.97;;;20.10;60.00;;;;;;5010811;28;20049;-49
2022/07/29 05:34:56;;;;;;;2.03;1.80;;;20.10;60.20;;;;;;5028471;28;20041;-52
2022/07/29 05:37:22;;;;;;;2.17;1.77;;;20.20;60.70;;;;;;5007742;28;21452;-53
2022/07/29 05:39:49;;;;;;;2.50;1.83;;;20.20;60.40;;;;;;5027875;28;20041;-49
2022/07/29 05:42:24;;;;;;;2.13;2.00;;;20.20;60.80;;;;;;5016011;28;20038;-52
2022/07/29 05:44:50;;;;;;;2.25;1.50;;;20.30;61.30;;;;;;5028521;28;20045;-50
2022/07/29 05:47:17;;;;;;;2.67;1.70;;;20.30;60.60;;;;;;5028286;28;20049;-47
2022/07/29 05:49:45;;;;;;;3.60;1.70;;;20.40;60.80;;;;;;5022467;28;20038;-49
2022/07/29 05:52:13;;;;;;;2.53;1.45;;;20.40;60.40;;;;;;5010113;28;20056;-50
2022/07/29 05:54:40;;;;;;;2.60;1.48;;;20.40;60.70;;;;;;5026107;28;20506;-50
2022/07/29 05:57:07;;;;;;;4.65;2.30;;;20.40;60.70;;;;;;5027998;28;20111;-49
2022/07/29 05:59:37;;;;;;;3.10;2.00;;;20.40;61.00;;;;;;5026285;28;20045;-48
2022/07/29 06:02:04;;;;;;;1.55;1.45;;;20.50;61.90;;;;;;5019905;28;20100;-49
2022/07/29 06:04:32;;;;;;;2.53;2.30;;;20.50;61.90;;;;;;5021605;28;20037;-49
2022/07/29 06:06:59;;;;;;;2.75;2.00;;;20.50;62.10;;;;;;5027604;28;20058;-52
2022/07/29 06:09:25;;;;;;;2.22;1.90;;;20.50;62.00;;;;;;5028440;28;20080;-50
2022/07/29 06:11:52;;;;;;;2.75;1.67;;;20.60;62.10;;;;;;5023905;28;20050;-52
2022/07/29 06:14:19;;;;;;;2.28;2.08;;;20.60;62.20;;;;;;5019890;28;20041;-49
2022/07/29 06:16:46;;;;;;;3.13;1.90;;;20.60;62.20;;;;;;5025176;28;20045;-51
2022/07/29 06:19:13;;;;;;;1.70;1.60;;;20.60;62.20;;;;;;5026731;28;20064;-51
2022/07/29 06:21:46;;;;;;;1.60;1.50;;;20.70;62.80;;;;;;5023421;28;20088;-52
2022/07/29 06:24:14;;;;;;;2.50;2.28;;;20.60;62.50;;;;;;5025435;28;20045;-51
2022/07/29 06:26:42;;;;;;;5.22;2.05;;;20.70;62.20;;;;;;5028178;28;20076;-52
2022/07/29 06:29:10;;;;;;;2.10;1.80;;;20.70;62.30;;;;;;5026506;28;20053;-48
2022/07/29 06:31:37;;;;;;;2.08;1.88;;;20.70;62.40;;;;;;5028237;28;20045;-51
2022/07/29 06:34:04;;;;;;;2.38;2.00;;;20.70;62.20;;;;;;5028429;28;20087;-53
2022/07/29 06:36:34;;;;;;;2.85;1.90;;;20.70;62.10;;;;;;5029109;28;20068;-51
2022/07/29 06:39:07;;;;;;;3.35;2.30;;;20.70;62.50;;;;;;5023280;28;20108;-50
2022/07/29 06:41:35;;;;;;;3.03;2.35;;;20.80;62.40;;;;;;5026985;28;20067;-51
2022/07/29 06:44:08;;;;;;;2.65;1.98;;;20.80;62.00;;;;;;5026834;28;20053;-51
2022/07/29 06:46:36;;;;;;;3.50;2.08;;;20.80;61.90;;;;;;5025783;28;20387;-53
2022/07/29 06:49:03;;;;;;;2.30;2.10;;;20.80;61.80;;;;;;5027136;28;20516;-52
2022/07/29 06:51:30;;;;;;;4.93;2.10;;;20.90;62.10;;;;;;5027647;28;20071;-47
2022/07/29 06:53:57;;;;;;;3.30;2.08;;;20.90;61.90;;;;;;5026912;28;20041;-52
2022/07/29 06:56:30;;;;;;;2.50;1.75;;;20.90;61.80;;;;;;5023251;28;20076;-49
2022/07/29 06:58:57;;;;;;;3.30;2.50;;;20.90;61.80;;;;;;5025926;28;20033;-51
2022/07/29 07:01:24;;;;;;;2.15;1.95;;;21.00;61.90;;;;;;5028089;28;20033;-48
2022/07/29 07:03:51;;;;;;;2.97;2.15;;;21.00;62.00;;;;;;5027426;28;20038;-48
2022/07/29 07:06:17;;;;;;;2.53;2.33;;;21.00;62.30;;;;;;5023529;28;20041;-47
2022/07/29 07:08:44;;;;;;;6.97;2.85;;;21.00;62.10;;;;;;5027740;28;20037;-48
2022/07/29 07:11:12;;;;;;;2.15;1.98;;;21.00;62.20;;;;;;5027998;28;20033;-49
2022/07/29 07:13:38;;;;;;;2.30;1.92;;;21.00;62.20;;;;;;5028319;28;20045;-49
2022/07/29 07:16:05;;;;;;;2.80;2.25;;;21.00;62.00;;;;;;5018640;28;20034;-51
2022/07/29 07:18:32;;;;;;;4.78;2.88;;;21.00;61.90;;;;;;5010521;28;20045;-48
2022/07/29 07:20:59;;;;;;;3.13;2.55;;;21.00;62.10;;;;;;5028356;28;20041;-51
2022/07/29 07:23:26;;;;;;;3.10;2.22;;;21.10;62.70;;;;;;5029325;28;20465;-51
2022/07/29 07:25:53;;;;;;;4.05;2.30;;;21.10;62.00;;;;;;5024784;28;20045;-49
2022/07/29 07:28:19;;;;;;;4.28;2.70;;;21.20;62.10;;;;;;5024939;28;20033;-51
2022/07/29 07:30:51;;;;;;;3.45;2.10;;;21.20;61.90;;;;;;5036684;28;20138;-49
2022/07/29 07:33:18;;;;;;;2.88;2.05;;;21.20;61.80;;;;;;5044070;28;20669;-49
2022/07/29 07:35:45;;;;;;;7.78;3.42;;;21.30;62.10;;;;;;5026351;28;20052;-48
2022/07/29 07:38:12;;;;;;;3.50;2.92;;;21.40;61.80;;;;;;5031829;28;20107;-52
2022/07/29 07:40:40;;;;;;;4.18;2.38;;;21.40;62.10;;;;;;5032467;28;20037;-48
2022/07/29 07:43:07;;;;;;;3.08;2.47;;;21.50;61.80;;;;;;5031957;28;20037;-51
2022/07/29 07:45:34;;;;;;;3.13;2.00;;;21.60;61.30;;;;;;5028093;28;20045;-47
2022/07/29 07:48:06;;;;;;;3.95;2.53;;;21.70;61.00;;;;;;5031986;28;20083;-53
2022/07/29 07:50:32;;;;;;;7.75;2.60;;;21.80;60.90;;;;;;5032050;28;20049;-52
2022/07/29 07:53:01;;;;;;;5.50;2.65;;;21.90;60.40;;;;;;5009212;28;20045;-49
2022/07/29 07:55:28;;;;;;;4.22;3.25;;;22.00;60.30;;;;;;5027386;28;20041;-48
2022/07/29 07:58:15;;;;;;;5.32;2.97;;;22.00;59.70;;;;;;5032210;28;20693;-48
2022/07/29 08:00:41;;;;;;;5.03;3.08;;;22.10;59.20;;;;;;5032147;28;20053;-50
2022/07/29 08:03:12;;;;;;;3.53;2.78;;;22.20;59.90;;;;;;5025311;28;20038;-50
2022/07/29 08:05:43;;;;;;;2.85;2.38;;;22.20;59.50;;;;;;5030783;28;20406;-48
2022/07/29 08:08:09;;;;;;;5.13;3.08;;;22.30;59.40;;;;;;5031319;28;20041;-48
2022/07/29 08:13:32;;;;;;;5.75;3.00;;;22.40;58.90;;;;;;5027775;28;20083;-49
2022/07/29 08:16:10;;;;;;;2.90;2.42;;;22.50;58.70;;;;;;5031430;28;20037;-50
2022/07/29 08:18:38;;;;;;;5.85;3.38;;;22.60;58.20;;;;;;5031110;28;20053;-49
2022/07/29 08:21:05;;;;;;;4.22;2.78;;;22.70;57.80;;;;;;5027166;28;20107;-49
2022/07/29 08:23:38;;;;;;;6.25;2.70;;;22.70;57.40;;;;;;5030570;28;20037;-48
2022/07/29 08:26:14;;;;;;;5.63;2.47;;;22.70;57.90;;;;;;5030562;28;20041;-49
2022/07/29 08:28:45;;;;;;;4.88;3.10;;;22.70;57.20;;;;;;5030853;28;20045;-53
2022/07/29 08:31:12;;;;;;;5.20;2.90;;;22.70;57.10;;;;;;5024394;28;20112;-50
2022/07/29 08:33:39;;;;;;;5.05;3.47;;;22.60;57.50;;;;;;5014205;28;20053;-49
2022/07/29 08:36:06;;;;;;;3.38;2.85;;;22.60;57.10;;;;;;5030117;28;20481;-49
2022/07/29 08:38:33;;;;;;;3.97;2.63;;;22.50;56.90;;;;;;5030735;28;20053;-47
2022/07/29 08:41:01;;;;;;;3.85;2.58;;;22.50;57.10;;;;;;5024905;28;20108;-53
2022/07/29 08:43:29;;;;;;;4.75;2.92;;;22.50;57.20;;;;;;5029608;28;20040;-51
2022/07/29 08:45:55;;;;;;;7.82;4.13;;;22.50;57.30;;;;;;5013122;28;20460;-51
2022/07/29 08:48:24;;;;;;;4.13;3.67;;;22.50;57.30;;;;;;5025333;28;20037;-52
2022/07/29 08:50:55;;;;;;;4.43;3.25;;;22.50;57.70;;;;;;5022215;28;20069;-51
2022/07/29 08:53:26;;;;;;;3.90;2.75;;;22.50;58.20;;;;;;5030625;28;20042;-47
2022/07/29 08:55:53;;;;;;;4.43;2.95;;;22.50;57.80;;;;;;5029664;28;20038;-48
2022/07/29 08:58:21;;;;;;;4.10;3.05;;;22.50;57.80;;;;;;5024249;28;20084;-47
2022/07/29 09:00:53;;;;;;;4.07;2.95;;;22.50;58.10;;;;;;5025795;28;20041;-51
2022/07/29 09:03:24;;;;;;;3.15;2.85;;;22.60;58.00;;;;;;5054490;23;20056;-46
2022/07/29 09:05:54;;;;;;;5.28;3.25;;;22.60;57.50;;;;;;5040084;28;20052;-47
2022/07/29 09:08:23;;;;;;;4.60;3.00;;;22.70;58.10;;;;;;5037312;28;20112;-45
2022/07/29 09:10:51;;;;;;;3.42;2.85;;;22.70;58.20;;;;;;5060923;28;20066;-46
2022/07/29 09:13:17;;;;;;;3.83;3.42;;;22.70;58.20;;;;;;5063720;28;20059;-46
2022/07/29 09:15:44;;;;;;;6.60;3.17;;;22.80;58.00;;;;;;5070664;28;20064;-46
2022/07/29 09:18:11;;;;;;;5.82;3.08;;;22.80;57.90;;;;;;5066688;28;20501;-46
2022/07/29 09:23:58;;;;;;;5.03;3.30;;;23.00;57.60;;;;;;5075691;28;20040;-47
2022/07/29 09:26:29;;;;;;;4.63;3.25;;;23.10;57.00;;;;;;5066257;28;20038;-49
2022/07/29 09:28:57;;;;;;;5.63;3.70;;;23.20;56.30;;;;;;5074841;28;20093;-45
2022/07/29 09:31:35;;;;;;;5.18;2.95;;;23.30;56.40;;;;;;5085915;28;20048;-49
2022/07/29 09:34:03;;;;;;;3.72;2.83;;;23.40;56.10;;;;;;5069380;28;20417;-48
2022/07/29 09:36:30;;;;;;;3.60;2.67;;;23.50;55.80;;;;;;5062134;28;20436;-47
2022/07/29 09:39:00;;;;;;;4.97;3.10;;;23.50;56.10;;;;;;5067096;28;20505;-43
2022/07/29 09:41:28;;;;;;;6.57;3.05;;;23.70;54.90;;;;;;5070224;28;20052;-42
2022/07/29 09:43:59;;;;;;;8.07;3.33;;;23.80;54.60;;;;;;5068882;28;20098;-47
2022/07/29 09:46:26;;;;;;;5.90;2.83;;;23.80;54.60;;;;;;5068560;28;20059;-43
2022/07/29 09:49:10;;;;;;;4.80;2.97;;;23.90;55.40;;;;;;5079124;28;20036;-43
2022/07/29 09:51:38;;;;;;;4.07;2.63;;;24.00;54.70;;;;;;5077322;28;20044;-43
2022/07/29 09:54:23;;;;;;;4.72;3.50;;;24.10;54.00;;;;;;5074855;28;20048;-44
2022/07/29 09:56:50;;;;;;;3.95;2.83;;;24.20;53.40;;;;;;5072244;28;20400;-43
2022/07/29 09:59:17;;;;;;;3.50;2.80;;;24.20;53.30;;;;;;5064109;28;20082;-45
2022/07/29 10:01:46;;;;;;;6.50;3.08;;;24.20;52.60;;;;;;5078622;28;20046;-43
2022/07/29 10:04:13;;;;;;;5.63;2.72;;;24.20;52.00;;;;;;5075698;28;20041;-44
2022/07/29 10:06:56;;;;;;;3.55;2.72;;;24.20;52.30;;;;;;5067015;28;20064;-44
2022/07/29 10:09:30;;;;;;;4.68;2.35;;;24.20;51.70;;;;;;5072227;28;20106;-45
2022/07/29 10:12:10;;;;;;;2.85;2.10;;;24.20;52.00;;;;;;5086123;28;20035;-42
2022/07/29 10:14:38;;;;;;;5.03;2.53;;;24.30;51.80;;;;;;5069893;28;20050;-43
2022/07/29 10:17:06;;;;;;;4.20;2.90;;;24.30;51.90;;;;;;5071856;28;20496;-46
2022/07/29 10:19:34;;;;;;;6.43;3.45;;;24.30;52.30;;;;;;5071576;28;20086;-47
2022/07/29 10:22:04;;;;;;;5.95;3.03;;;24.40;51.90;;;;;;5051206;28;20086;-43
2022/07/29 10:24:32;;;;;;;4.28;3.03;;;24.40;51.70;;;;;;5066768;28;20598;-48
2022/07/29 10:27:01;;;;;;;4.78;3.35;;;24.50;52.20;;;;;;5066037;28;20071;-45
2022/07/29 10:29:31;;;;;;;5.50;3.53;;;24.50;51.90;;;;;;5080158;28;20471;-48
2022/07/29 10:32:03;;;;;;;4.00;3.10;;;24.50;51.70;;;;;;5087845;28;20044;-46
2022/07/29 10:34:49;;;;;;;3.22;2.92;;;24.60;51.90;;;;;;5075698;28;20488;-47
2022/07/29 10:37:46;;;;;;;3.78;3.20;;;24.60;51.30;;;;;;5073914;28;20048;-45
2022/07/29 10:43:28;;;;;;;3.95;2.97;;;24.80;51.20;;;;;;5062749;28;20048;-47
2022/07/29 10:45:58;;;;;;;5.90;3.20;;;24.90;51.10;;;;;;5072930;28;20112;-46
2022/07/29 10:48:25;;;;;;;3.80;2.80;;;24.90;51.20;;;;;;5087960;28;20064;-47
2022/07/29 10:50:55;;;;;;;4.53;2.95;;;25.00;51.50;;;;;;5073200;28;20090;-48
2022/07/29 10:53:23;;;;;;;4.53;3.05;;;25.10;50.60;;;;;;5066934;28;20052;-45
2022/07/29 10:55:52;;;;;;;4.82;3.10;;;25.10;50.60;;;;;;5076536;28;20048;-45
2022/07/29 10:58:20;;;;;;;4.30;3.17;;;25.10;50.50;;;;;;5049250;28;20057;-47
2022/07/29 11:00:49;;;;;;;3.78;3.47;;;25.10;50.60;;;;;;5054242;28;20431;-47
2022/07/29 11:03:51;;;;;;;4.13;3.17;;;25.10;51.30;;;;;;5073114;28;20052;-45
2022/07/29 11:06:25;;;;;;;5.40;3.05;;;25.20;51.40;;;;;;5077088;28;20040;-44
2022/07/29 11:09:17;;;;;;;6.60;3.70;;;25.20;51.00;;;;;;5058993;28;20042;-45
2022/07/29 11:11:46;;;;;;;5.03;3.15;;;25.20;50.70;;;;;;5066547;28;20041;-43
2022/07/29 11:14:18;;;;;;;5.10;2.90;;;25.20;50.40;;;;;;5069763;28;20048;-43
2022/07/29 11:16:59;;;;;;;2.92;2.60;;;25.20;50.30;;;;;;5080225;28;20033;-44
2022/07/29 11:19:26;;;;;;;5.30;3.67;;;25.20;49.50;;;;;;5057358;28;20040;-43
2022/07/29 11:21:57;;;;;;;3.45;3.15;;;25.20;49.40;;;;;;5085353;28;20036;-45
2022/07/29 11:24:31;;;;;;;5.05;3.30;;;25.20;49.60;;;;;;5070986;28;20028;-43
2022/07/29 11:27:19;;;;;;;3.85;3.00;;;25.10;50.10;;;;;;5060679;28;20557;-45
2022/07/29 11:30:01;;;;;;;5.60;3.50;;;25.20;50.60;;;;;;5083046;28;20085;-45
2022/07/29 11:32:39;;;;;;;4.68;3.53;;;25.20;50.20;;;;;;5069572;28;20045;-48
2022/07/29 11:35:21;;;;;;;3.67;3.38;;;25.30;50.50;;;;;;5075939;28;20049;-45
2022/07/29 11:38:26;;;;;;;4.43;3.22;;;25.40;50.50;;;;;;5077578;28;20489;-44
2022/07/29 11:41:21;;;;;;;7.07;3.15;;;25.50;50.30;;;;;;5083939;28;20040;-43
2022/07/29 11:43:53;;;;;;;3.63;2.85;;;25.60;49.90;;;;;;5088581;28;20180;-44
2022/07/29 11:46:47;;;;;;;5.72;3.17;;;25.70;50.30;;;;;;5079509;28;20082;-47
2022/07/29 11:49:22;;;;;;;3.58;3.28;;;25.80;49.30;;;;;;5071194;28;20045;-44
2022/07/29 11:52:10;;;;;;;12.93;4.28;;;25.90;49.20;;;;;;5081479;28;20044;-47
2022/07/29 11:54:42;;;;;;;5.68;3.67;;;26.00;49.00;;;;;;5093564;28;20050;-43
2022/07/29 11:57:27;;;;;;;3.90;2.80;;;26.10;49.00;;;;;;5067165;28;20036;-43
2022/07/29 12:00:08;;;;;;;8.13;3.63;;;26.20;49.50;;;;;;5084036;28;20093;-46
2022/07/29 12:02:41;;;;;;;6.40;3.53;;;26.30;49.40;;;;;;5085957;28;20098;-42
2022/07/29 12:05:10;;;;;;;5.40;3.10;;;26.40;48.50;;;;;;5088022;28;20048;-46
2022/07/29 12:07:38;;;;;;;3.75;3.22;;;26.50;48.30;;;;;;5080949;28;20454;-44
2022/07/29 12:10:11;;;;;;;5.10;2.83;;;26.60;48.10;;;;;;5075869;28;20450;-45
2022/07/29 12:12:52;;;;;;;5.20;3.22;;;26.70;48.30;;;;;;5062025;28;20043;-45
2022/07/29 12:15:20;;;;;;;4.47;3.28;;;26.80;47.90;;;;;;5061235;28;20041;-46
2022/07/29 12:17:48;;;;;;;6.32;3.25;;;26.90;48.20;;;;;;5062063;28;20044;-48
2022/07/29 12:20:23;;;;;;;6.07;3.33;;;27.00;47.70;;;;;;5065942;28;20077;-46
2022/07/29 12:22:53;;;;;;;4.07;3.03;;;27.10;47.10;;;;;;5059064;28;20044;-46
2022/07/29 12:25:22;;;;;;;4.68;3.35;;;27.10;46.90;;;;;;5063409;28;20041;-45
2022/07/29 12:28:06;;;;;;;2.88;2.67;;;27.20;47.40;;;;;;5069777;28;20040;-44
2022/07/29 12:30:41;;;;;;;5.90;3.15;;;27.30;46.90;;;;;;5071305;28;20644;-46
2022/07/29 12:33:12;;;;;;;3.63;3.03;;;27.50;46.40;;;;;;5067166;28;20103;-47
2022/07/29 12:35:39;;;;;;;3.78;3.40;;;27.60;46.30;;;;;;5067025;28;20048;-45
2022/07/29 12:38:06;;;;;;;7.40;4.10;;;27.80;46.30;;;;;;5074883;28;20045;-47
2022/07/29 12:40:33;;;;;;;3.00;2.70;;;27.90;46.10;;;;;;5067963;28;20048;-44
2022/07/29 12:43:19;;;;;;;3.38;2.53;;;28.00;45.70;;;;;;5070398;28;20040;-48
2022/07/29 12:45:49;;;;;;;3.25;2.40;;;28.10;45.60;;;;;;5071115;28;20094;-45
2022/07/29 12:48:18;;;;;;;4.20;2.63;;;28.20;44.90;;;;;;5070688;28;20092;-44
2022/07/29 12:51:08;;;;;;;4.50;2.63;;;28.30;44.60;;;;;;5067627;28;20415;-45
2022/07/29 12:53:36;;;;;;;4.00;2.58;;;28.50;44.00;;;;;;5065538;28;20090;-43
2022/07/29 12:56:04;;;;;;;2.95;2.40;;;28.50;44.80;;;;;;5071714;28;20048;-45
2022/07/29 12:58:51;;;;;;;3.35;3.03;;;28.50;44.10;;;;;;5061690;28;20069;-47
2022/07/29 13:01:19;;;;;;;3.17;2.70;;;28.50;44.70;;;;;;5066589;28;20450;-43
2022/07/29 13:03:52;;;;;;;2.75;2.53;;;28.50;43.90;;;;;;5068212;28;20614;-46
2022/07/29 13:06:33;;;;;;;3.63;2.85;;;28.50;44.80;;;;;;5069324;28;20456;-45
2022/07/29 13:09:02;;;;;;;3.97;2.50;;;28.50;44.10;;;;;;5066813;28;20048;-43
2022/07/29 13:11:30;;;;;;;2.65;2.45;;;28.50;45.10;;;;;;5067235;28;20037;-45
2022/07/29 13:14:00;;;;;;;2.92;2.58;;;28.60;44.20;;;;;;5073291;28;20542;-46
2022/07/29 13:16:33;;;;;;;3.40;2.78;;;28.70;44.90;;;;;;5073006;28;20060;-45
2022/07/29 13:19:04;;;;;;;3.88;2.97;;;28.70;44.50;;;;;;5070470;28;20063;-46
2022/07/29 13:21:32;;;;;;;5.68;3.63;;;28.80;44.40;;;;;;5072775;28;20108;-44
2022/07/29 13:23:58;;;;;;;3.15;2.88;;;29.00;44.10;;;;;;5072755;28;20079;-43
2022/07/29 13:26:25;;;;;;;3.17;2.80;;;29.00;44.30;;;;;;5055208;28;20500;-47